sensor_id;sensor_type;location;lat;lon;timestamp;P1;durP1;ratioP1;P2;durP2;ratioP2
9689;SDS011;4884;42.614;23.340;2024-01-06T00:00:50;4.37;;;2.90;;
9689;SDS011;4884;42.614;23.340;2024-01-06T00:03:15;3.57;;;2.90;;
9689;SDS011;4884;42.614;23.340;2024-01-06T00:05:40;3.30;;;2.20;;
9689;SDS011;4884;42.614;23.340;2024-01-06T00:08:06;3.80;;;2.30;;
9689;SDS011;4884;42.614;23.340;2024-01-06T00:10:31;2.50;;;1.53;;
9689;SDS011;4884;42.614;23.340;2024-01-06T00:12:57;13.23;;;8.10;;
9689;SDS011;4884;42.614;23.340;2024-01-06T00:15:22;11.13;;;6.60;;
9689;SDS011;4884;42.614;23.340;2024-01-06T00:17:48;16.03;;;7.20;;
9689;SDS011;4884;42.614;23.340;2024-01-06T00:20:13;9.70;;;4.60;;
9689;SDS011;4884;42.614;23.340;2024-01-06T00:22:39;3.30;;;1.97;;
9689;SDS011;4884;42.614;23.340;2024-01-06T00:25:04;2.93;;;1.93;;
9689;SDS011;4884;42.614;23.340;2024-01-06T00:27:30;2.23;;;1.53;;
9689;SDS011;4884;42.614;23.340;2024-01-06T00:29:55;3.30;;;2.03;;
9689;SDS011;4884;42.614;23.340;2024-01-06T00:32:20;5.43;;;1.93;;
9689;SDS011;4884;42.614;23.340;2024-01-06T00:34:46;3.13;;;1.83;;
9689;SDS011;4884;42.614;23.340;2024-01-06T00:37:12;4.47;;;2.00;;
9689;SDS011;4884;42.614;23.340;2024-01-06T00:39:38;2.93;;;2.30;;
9689;SDS011;4884;42.614;23.340;2024-01-06T00:42:03;5.33;;;2.33;;
9689;SDS011;4884;42.614;23.340;2024-01-06T00:44:29;2.80;;;2.00;;
9689;SDS011;4884;42.614;23.340;2024-01-06T00:46:54;4.40;;;2.53;;
9689;SDS011;4884;42.614;23.340;2024-01-06T00:49:19;6.77;;;3.47;;
9689;SDS011;4884;42.614;23.340;2024-01-06T00:51:45;6.43;;;3.60;;
9689;SDS011;4884;42.614;23.340;2024-01-06T00:54:10;11.97;;;3.90;;
9689;SDS011;4884;42.614;23.340;2024-01-06T00:56:35;7.43;;;3.67;;
9689;SDS011;4884;42.614;23.340;2024-01-06T00:59:01;6.40;;;3.47;;
9689;SDS011;4884;42.614;23.340;2024-01-06T01:01:26;6.73;;;3.17;;
9689;SDS011;4884;42.614;23.340;2024-01-06T01:03:52;6.73;;;3.97;;
9689;SDS011;4884;42.614;23.340;2024-01-06T01:06:17;5.57;;;3.03;;
9689;SDS011;4884;42.614;23.340;2024-01-06T01:08:42;9.50;;;4.57;;
9689;SDS011;4884;42.614;23.340;2024-01-06T01:11:08;5.17;;;3.77;;
9689;SDS011;4884;42.614;23.340;2024-01-06T01:13:33;5.80;;;3.27;;
9689;SDS011;4884;42.614;23.340;2024-01-06T01:15:59;7.87;;;3.87;;
9689;SDS011;4884;42.614;23.340;2024-01-06T01:18:24;4.13;;;1.90;;
9689;SDS011;4884;42.614;23.340;2024-01-06T01:20:49;4.37;;;2.40;;
9689;SDS011;4884;42.614;23.340;2024-01-06T01:23:15;8.07;;;3.93;;
9689;SDS011;4884;42.614;23.340;2024-01-06T01:25:40;6.30;;;3.33;;
9689;SDS011;4884;42.614;23.340;2024-01-06T01:28:05;5.07;;;2.47;;
9689;SDS011;4884;42.614;23.340;2024-01-06T01:30:31;3.93;;;2.57;;
9689;SDS011;4884;42.614;23.340;2024-01-06T01:32:57;2.30;;;1.93;;
9689;SDS011;4884;42.614;23.340;2024-01-06T01:35:23;2.83;;;1.90;;
9689;SDS011;4884;42.614;23.340;2024-01-06T01:37:48;2.37;;;2.00;;
9689;SDS011;4884;42.614;23.340;2024-01-06T01:40:14;1.63;;;1.53;;
9689;SDS011;4884;42.614;23.340;2024-01-06T01:42:40;5.33;;;2.10;;
9689;SDS011;4884;42.614;23.340;2024-01-06T01:45:07;3.70;;;1.67;;
9689;SDS011;4884;42.614;23.340;2024-01-06T01:47:32;3.73;;;2.20;;
9689;SDS011;4884;42.614;23.340;2024-01-06T01:49:58;4.93;;;2.20;;
9689;SDS011;4884;42.614;23.340;2024-01-06T01:52:23;3.23;;;1.90;;
9689;SDS011;4884;42.614;23.340;2024-01-06T01:54:48;4.10;;;1.60;;
9689;SDS011;4884;42.614;23.340;2024-01-06T01:57:14;3.90;;;1.93;;
9689;SDS011;4884;42.614;23.340;2024-01-06T01:59:40;3.73;;;2.03;;
9689;SDS011;4884;42.614;23.340;2024-01-06T02:02:07;3.30;;;2.13;;
9689;SDS011;4884;42.614;23.340;2024-01-06T02:04:33;3.50;;;2.50;;
9689;SDS011;4884;42.614;23.340;2024-01-06T02:06:58;2.40;;;2.20;;
9689;SDS011;4884;42.614;23.340;2024-01-06T02:09:24;3.37;;;2.30;;
9689;SDS011;4884;42.614;23.340;2024-01-06T02:11:52;4.03;;;1.80;;
9689;SDS011;4884;42.614;23.340;2024-01-06T02:14:17;2.17;;;1.90;;
9689;SDS011;4884;42.614;23.340;2024-01-06T02:16:43;3.13;;;1.90;;
9689;SDS011;4884;42.614;23.340;2024-01-06T02:19:08;4.10;;;1.93;;
9689;SDS011;4884;42.614;23.340;2024-01-06T02:21:36;6.20;;;3.70;;
9689;SDS011;4884;42.614;23.340;2024-01-06T02:24:07;4.03;;;2.00;;
9689;SDS011;4884;42.614;23.340;2024-01-06T02:26:32;8.87;;;4.80;;
9689;SDS011;4884;42.614;23.340;2024-01-06T02:28:57;7.10;;;3.80;;
9689;SDS011;4884;42.614;23.340;2024-01-06T02:31:23;5.20;;;4.43;;
9689;SDS011;4884;42.614;23.340;2024-01-06T02:33:48;7.73;;;4.57;;
9689;SDS011;4884;42.614;23.340;2024-01-06T02:36:13;7.73;;;4.23;;
9689;SDS011;4884;42.614;23.340;2024-01-06T02:38:39;6.83;;;3.80;;
9689;SDS011;4884;42.614;23.340;2024-01-06T02:41:04;5.90;;;3.77;;
9689;SDS011;4884;42.614;23.340;2024-01-06T02:43:29;7.17;;;3.83;;
9689;SDS011;4884;42.614;23.340;2024-01-06T02:45:55;5.63;;;3.33;;
9689;SDS011;4884;42.614;23.340;2024-01-06T02:48:20;8.57;;;4.27;;
9689;SDS011;4884;42.614;23.340;2024-01-06T02:50:45;3.33;;;2.53;;
9689;SDS011;4884;42.614;23.340;2024-01-06T02:53:11;6.17;;;2.60;;
9689;SDS011;4884;42.614;23.340;2024-01-06T02:55:37;3.77;;;1.93;;
9689;SDS011;4884;42.614;23.340;2024-01-06T02:58:03;2.43;;;1.80;;
9689;SDS011;4884;42.614;23.340;2024-01-06T03:00:29;8.77;;;3.13;;
9689;SDS011;4884;42.614;23.340;2024-01-06T03:02:54;9.23;;;4.20;;
9689;SDS011;4884;42.614;23.340;2024-01-06T03:05:19;7.13;;;3.67;;
9689;SDS011;4884;42.614;23.340;2024-01-06T03:07:45;9.43;;;3.60;;
9689;SDS011;4884;42.614;23.340;2024-01-06T03:10:10;14.43;;;6.00;;
9689;SDS011;4884;42.614;23.340;2024-01-06T03:12:36;16.30;;;6.20;;
9689;SDS011;4884;42.614;23.340;2024-01-06T03:15:01;6.63;;;4.10;;
9689;SDS011;4884;42.614;23.340;2024-01-06T03:17:26;4.63;;;2.73;;
9689;SDS011;4884;42.614;23.340;2024-01-06T03:19:53;4.63;;;2.37;;
9689;SDS011;4884;42.614;23.340;2024-01-06T03:22:19;3.50;;;2.60;;
9689;SDS011;4884;42.614;23.340;2024-01-06T03:24:44;4.43;;;3.00;;
9689;SDS011;4884;42.614;23.340;2024-01-06T03:27:10;5.93;;;2.30;;
9689;SDS011;4884;42.614;23.340;2024-01-06T03:29:35;5.13;;;2.23;;
9689;SDS011;4884;42.614;23.340;2024-01-06T03:32:01;3.77;;;1.93;;
9689;SDS011;4884;42.614;23.340;2024-01-06T03:34:26;4.90;;;1.90;;
9689;SDS011;4884;42.614;23.340;2024-01-06T03:36:51;3.67;;;2.00;;
9689;SDS011;4884;42.614;23.340;2024-01-06T03:39:17;2.73;;;2.03;;
9689;SDS011;4884;42.614;23.340;2024-01-06T03:41:42;3.10;;;1.70;;
9689;SDS011;4884;42.614;23.340;2024-01-06T03:44:07;2.57;;;2.20;;
9689;SDS011;4884;42.614;23.340;2024-01-06T03:46:34;4.40;;;4.00;;
9689;SDS011;4884;42.614;23.340;2024-01-06T03:49:00;2.80;;;2.50;;
9689;SDS011;4884;42.614;23.340;2024-01-06T03:51:25;3.70;;;2.17;;
9689;SDS011;4884;42.614;23.340;2024-01-06T03:53:51;7.03;;;2.50;;
9689;SDS011;4884;42.614;23.340;2024-01-06T03:56:16;4.90;;;1.97;;
9689;SDS011;4884;42.614;23.340;2024-01-06T03:58:42;4.37;;;2.97;;
9689;SDS011;4884;42.614;23.340;2024-01-06T04:01:07;5.00;;;2.87;;
9689;SDS011;4884;42.614;23.340;2024-01-06T04:03:32;3.70;;;2.67;;
9689;SDS011;4884;42.614;23.340;2024-01-06T04:05:58;5.30;;;2.63;;
9689;SDS011;4884;42.614;23.340;2024-01-06T04:08:23;4.73;;;3.53;;
9689;SDS011;4884;42.614;23.340;2024-01-06T04:10:48;3.80;;;2.93;;
9689;SDS011;4884;42.614;23.340;2024-01-06T04:13:15;4.20;;;2.50;;
9689;SDS011;4884;42.614;23.340;2024-01-06T04:15:40;4.57;;;2.67;;
9689;SDS011;4884;42.614;23.340;2024-01-06T04:18:06;3.67;;;2.97;;
9689;SDS011;4884;42.614;23.340;2024-01-06T04:20:32;7.57;;;3.40;;
9689;SDS011;4884;42.614;23.340;2024-01-06T04:22:57;4.50;;;3.50;;
9689;SDS011;4884;42.614;23.340;2024-01-06T04:25:23;3.43;;;3.13;;
9689;SDS011;4884;42.614;23.340;2024-01-06T04:27:48;6.60;;;2.63;;
9689;SDS011;4884;42.614;23.340;2024-01-06T04:30:15;6.97;;;3.57;;
9689;SDS011;4884;42.614;23.340;2024-01-06T04:32:41;5.73;;;3.97;;
9689;SDS011;4884;42.614;23.340;2024-01-06T04:35:06;5.47;;;3.53;;
9689;SDS011;4884;42.614;23.340;2024-01-06T04:37:32;8.47;;;2.60;;
9689;SDS011;4884;42.614;23.340;2024-01-06T04:39:57;5.37;;;2.67;;
9689;SDS011;4884;42.614;23.340;2024-01-06T04:42:23;4.77;;;2.73;;
9689;SDS011;4884;42.614;23.340;2024-01-06T04:44:49;3.70;;;3.20;;
9689;SDS011;4884;42.614;23.340;2024-01-06T04:47:15;5.10;;;4.20;;
9689;SDS011;4884;42.614;23.340;2024-01-06T04:49:40;7.20;;;4.40;;
9689;SDS011;4884;42.614;23.340;2024-01-06T04:52:05;3.03;;;2.30;;
9689;SDS011;4884;42.614;23.340;2024-01-06T04:54:31;4.33;;;3.00;;
9689;SDS011;4884;42.614;23.340;2024-01-06T04:56:57;5.57;;;3.80;;
9689;SDS011;4884;42.614;23.340;2024-01-06T04:59:23;10.57;;;5.93;;
9689;SDS011;4884;42.614;23.340;2024-01-06T05:01:48;6.47;;;5.03;;
9689;SDS011;4884;42.614;23.340;2024-01-06T05:04:14;6.47;;;4.10;;
9689;SDS011;4884;42.614;23.340;2024-01-06T05:06:39;4.57;;;3.47;;
9689;SDS011;4884;42.614;23.340;2024-01-06T05:09:05;5.03;;;3.20;;
9689;SDS011;4884;42.614;23.340;2024-01-06T05:11:31;4.57;;;3.80;;
9689;SDS011;4884;42.614;23.340;2024-01-06T05:13:56;4.33;;;3.27;;
9689;SDS011;4884;42.614;23.340;2024-01-06T05:16:21;24.43;;;10.37;;
9689;SDS011;4884;42.614;23.340;2024-01-06T05:18:47;9.13;;;5.60;;
9689;SDS011;4884;42.614;23.340;2024-01-06T05:21:12;11.60;;;5.77;;
9689;SDS011;4884;42.614;23.340;2024-01-06T05:23:37;8.73;;;3.40;;
9689;SDS011;4884;42.614;23.340;2024-01-06T05:26:03;6.20;;;3.20;;
9689;SDS011;4884;42.614;23.340;2024-01-06T05:28:29;8.83;;;6.47;;
9689;SDS011;4884;42.614;23.340;2024-01-06T05:30:54;15.87;;;9.10;;
9689;SDS011;4884;42.614;23.340;2024-01-06T05:33:20;11.53;;;7.23;;
9689;SDS011;4884;42.614;23.340;2024-01-06T05:35:45;11.87;;;6.87;;
9689;SDS011;4884;42.614;23.340;2024-01-06T05:38:10;6.93;;;4.50;;
9689;SDS011;4884;42.614;23.340;2024-01-06T05:40:36;7.13;;;5.30;;
9689;SDS011;4884;42.614;23.340;2024-01-06T05:43:01;7.17;;;4.83;;
9689;SDS011;4884;42.614;23.340;2024-01-06T05:45:27;4.77;;;4.03;;
9689;SDS011;4884;42.614;23.340;2024-01-06T05:47:52;5.27;;;4.00;;
9689;SDS011;4884;42.614;23.340;2024-01-06T05:50:17;9.77;;;5.00;;
9689;SDS011;4884;42.614;23.340;2024-01-06T05:52:43;21.80;;;10.10;;
9689;SDS011;4884;42.614;23.340;2024-01-06T05:55:09;18.80;;;9.63;;
9689;SDS011;4884;42.614;23.340;2024-01-06T05:57:35;10.77;;;4.50;;
9689;SDS011;4884;42.614;23.340;2024-01-06T06:00:00;6.30;;;3.23;;
9689;SDS011;4884;42.614;23.340;2024-01-06T06:02:25;10.70;;;4.33;;
9689;SDS011;4884;42.614;23.340;2024-01-06T06:04:51;23.07;;;9.17;;
9689;SDS011;4884;42.614;23.340;2024-01-06T06:07:17;8.77;;;4.27;;
9689;SDS011;4884;42.614;23.340;2024-01-06T06:09:43;6.70;;;3.33;;
9689;SDS011;4884;42.614;23.340;2024-01-06T06:12:08;3.50;;;2.30;;
9689;SDS011;4884;42.614;23.340;2024-01-06T06:14:34;8.00;;;5.90;;
9689;SDS011;4884;42.614;23.340;2024-01-06T06:16:59;13.57;;;7.07;;
9689;SDS011;4884;42.614;23.340;2024-01-06T06:19:24;5.43;;;3.13;;
9689;SDS011;4884;42.614;23.340;2024-01-06T06:21:50;4.40;;;3.80;;
9689;SDS011;4884;42.614;23.340;2024-01-06T06:24:15;5.77;;;3.90;;
9689;SDS011;4884;42.614;23.340;2024-01-06T06:26:41;3.40;;;2.80;;
9689;SDS011;4884;42.614;23.340;2024-01-06T06:29:06;2.63;;;2.40;;
9689;SDS011;4884;42.614;23.340;2024-01-06T06:31:31;4.33;;;2.47;;
9689;SDS011;4884;42.614;23.340;2024-01-06T06:33:57;3.90;;;3.17;;
9689;SDS011;4884;42.614;23.340;2024-01-06T06:36:22;5.60;;;3.50;;
9689;SDS011;4884;42.614;23.340;2024-01-06T06:38:47;8.70;;;4.30;;
9689;SDS011;4884;42.614;23.340;2024-01-06T06:41:13;8.80;;;4.10;;
9689;SDS011;4884;42.614;23.340;2024-01-06T06:43:38;7.27;;;4.20;;
9689;SDS011;4884;42.614;23.340;2024-01-06T06:46:03;5.83;;;4.07;;
9689;SDS011;4884;42.614;23.340;2024-01-06T06:48:29;7.73;;;5.00;;
9689;SDS011;4884;42.614;23.340;2024-01-06T06:50:55;18.17;;;7.30;;
9689;SDS011;4884;42.614;23.340;2024-01-06T06:53:20;7.97;;;4.97;;
9689;SDS011;4884;42.614;23.340;2024-01-06T06:55:45;9.70;;;6.10;;
9689;SDS011;4884;42.614;23.340;2024-01-06T06:58:12;5.23;;;4.17;;
9689;SDS011;4884;42.614;23.340;2024-01-06T07:00:37;6.20;;;3.83;;
9689;SDS011;4884;42.614;23.340;2024-01-06T07:03:03;4.77;;;2.90;;
9689;SDS011;4884;42.614;23.340;2024-01-06T07:05:29;6.33;;;3.67;;
9689;SDS011;4884;42.614;23.340;2024-01-06T07:07:55;3.40;;;3.10;;
9689;SDS011;4884;42.614;23.340;2024-01-06T07:10:20;6.50;;;3.90;;
9689;SDS011;4884;42.614;23.340;2024-01-06T07:12:45;5.00;;;3.20;;
9689;SDS011;4884;42.614;23.340;2024-01-06T07:15:11;4.27;;;3.00;;
9689;SDS011;4884;42.614;23.340;2024-01-06T07:17:36;9.20;;;4.60;;
9689;SDS011;4884;42.614;23.340;2024-01-06T07:20:03;8.37;;;4.87;;
9689;SDS011;4884;42.614;23.340;2024-01-06T07:22:49;5.93;;;4.00;;
9689;SDS011;4884;42.614;23.340;2024-01-06T07:25:14;4.33;;;2.43;;
9689;SDS011;4884;42.614;23.340;2024-01-06T07:27:39;5.80;;;2.50;;
9689;SDS011;4884;42.614;23.340;2024-01-06T07:30:05;3.57;;;2.97;;
9689;SDS011;4884;42.614;23.340;2024-01-06T07:32:33;7.80;;;7.10;;
9689;SDS011;4884;42.614;23.340;2024-01-06T07:34:58;5.73;;;3.60;;
9689;SDS011;4884;42.614;23.340;2024-01-06T07:37:23;3.87;;;3.47;;
9689;SDS011;4884;42.614;23.340;2024-01-06T07:39:49;4.60;;;3.73;;
9689;SDS011;4884;42.614;23.340;2024-01-06T07:42:14;4.23;;;3.20;;
9689;SDS011;4884;42.614;23.340;2024-01-06T07:44:39;4.47;;;2.70;;
9689;SDS011;4884;42.614;23.340;2024-01-06T07:47:05;2.60;;;2.40;;
9689;SDS011;4884;42.614;23.340;2024-01-06T07:49:30;5.27;;;3.17;;
9689;SDS011;4884;42.614;23.340;2024-01-06T07:51:56;5.67;;;5.17;;
9689;SDS011;4884;42.614;23.340;2024-01-06T07:54:22;3.87;;;3.57;;
9689;SDS011;4884;42.614;23.340;2024-01-06T07:56:47;7.87;;;6.73;;
9689;SDS011;4884;42.614;23.340;2024-01-06T07:59:13;7.87;;;7.10;;
9689;SDS011;4884;42.614;23.340;2024-01-06T08:01:38;7.00;;;5.07;;
9689;SDS011;4884;42.614;23.340;2024-01-06T08:04:04;8.77;;;6.13;;
9689;SDS011;4884;42.614;23.340;2024-01-06T08:06:29;7.37;;;6.30;;
9689;SDS011;4884;42.614;23.340;2024-01-06T08:08:55;9.13;;;5.30;;
9689;SDS011;4884;42.614;23.340;2024-01-06T08:11:20;10.63;;;5.77;;
9689;SDS011;4884;42.614;23.340;2024-01-06T08:13:46;6.10;;;4.33;;
9689;SDS011;4884;42.614;23.340;2024-01-06T08:16:11;5.83;;;4.43;;
9689;SDS011;4884;42.614;23.340;2024-01-06T08:18:36;6.37;;;4.93;;
9689;SDS011;4884;42.614;23.340;2024-01-06T08:21:02;8.17;;;4.37;;
9689;SDS011;4884;42.614;23.340;2024-01-06T08:23:27;17.23;;;10.97;;
9689;SDS011;4884;42.614;23.340;2024-01-06T08:25:53;9.10;;;6.53;;
9689;SDS011;4884;42.614;23.340;2024-01-06T08:28:18;7.83;;;5.33;;
9689;SDS011;4884;42.614;23.340;2024-01-06T08:30:44;5.13;;;4.33;;
9689;SDS011;4884;42.614;23.340;2024-01-06T08:33:10;6.63;;;5.20;;
9689;SDS011;4884;42.614;23.340;2024-01-06T08:35:35;5.57;;;4.67;;
9689;SDS011;4884;42.614;23.340;2024-01-06T08:38:05;8.53;;;7.00;;
9689;SDS011;4884;42.614;23.340;2024-01-06T08:40:33;14.00;;;8.60;;
9689;SDS011;4884;42.614;23.340;2024-01-06T08:43:00;18.63;;;12.00;;
9689;SDS011;4884;42.614;23.340;2024-01-06T08:45:25;15.10;;;10.33;;
9689;SDS011;4884;42.614;23.340;2024-01-06T08:47:51;19.07;;;12.13;;
9689;SDS011;4884;42.614;23.340;2024-01-06T08:50:16;20.33;;;11.27;;
9689;SDS011;4884;42.614;23.340;2024-01-06T08:52:41;15.93;;;10.93;;
9689;SDS011;4884;42.614;23.340;2024-01-06T08:55:07;10.07;;;7.20;;
9689;SDS011;4884;42.614;23.340;2024-01-06T08:57:33;8.47;;;6.97;;
9689;SDS011;4884;42.614;23.340;2024-01-06T08:59:58;9.30;;;6.07;;
9689;SDS011;4884;42.614;23.340;2024-01-06T09:02:23;7.63;;;5.93;;
9689;SDS011;4884;42.614;23.340;2024-01-06T09:04:49;27.70;;;16.03;;
9689;SDS011;4884;42.614;23.340;2024-01-06T09:07:14;8.93;;;7.23;;
9689;SDS011;4884;42.614;23.340;2024-01-06T09:09:40;9.07;;;6.50;;
9689;SDS011;4884;42.614;23.340;2024-01-06T09:12:05;8.83;;;6.43;;
9689;SDS011;4884;42.614;23.340;2024-01-06T09:14:31;8.80;;;6.63;;
9689;SDS011;4884;42.614;23.340;2024-01-06T09:16:56;9.57;;;6.07;;
9689;SDS011;4884;42.614;23.340;2024-01-06T09:19:21;6.43;;;5.20;;
9689;SDS011;4884;42.614;23.340;2024-01-06T09:21:47;6.83;;;4.67;;
9689;SDS011;4884;42.614;23.340;2024-01-06T09:24:12;6.47;;;4.80;;
9689;SDS011;4884;42.614;23.340;2024-01-06T09:26:37;7.40;;;5.33;;
9689;SDS011;4884;42.614;23.340;2024-01-06T09:29:03;3.97;;;3.57;;
9689;SDS011;4884;42.614;23.340;2024-01-06T09:31:29;9.23;;;3.90;;
9689;SDS011;4884;42.614;23.340;2024-01-06T09:33:54;7.17;;;3.33;;
9689;SDS011;4884;42.614;23.340;2024-01-06T09:36:20;3.80;;;3.40;;
9689;SDS011;4884;42.614;23.340;2024-01-06T09:38:45;6.53;;;3.20;;
9689;SDS011;4884;42.614;23.340;2024-01-06T09:41:11;5.70;;;5.20;;
9689;SDS011;4884;42.614;23.340;2024-01-06T09:43:36;5.60;;;4.73;;
9689;SDS011;4884;42.614;23.340;2024-01-06T09:46:45;4.07;;;3.30;;
9689;SDS011;4884;42.614;23.340;2024-01-06T09:48:53;31.73;;;21.27;;
9689;SDS011;4884;42.614;23.340;2024-01-06T09:51:19;7.03;;;5.10;;
9689;SDS011;4884;42.614;23.340;2024-01-06T09:53:49;6.03;;;4.13;;
9689;SDS011;4884;42.614;23.340;2024-01-06T09:56:17;4.30;;;2.93;;
9689;SDS011;4884;42.614;23.340;2024-01-06T09:58:43;4.97;;;3.23;;
9689;SDS011;4884;42.614;23.340;2024-01-06T10:01:09;3.73;;;3.30;;
9689;SDS011;4884;42.614;23.340;2024-01-06T10:03:36;4.50;;;3.67;;
9689;SDS011;4884;42.614;23.340;2024-01-06T10:06:02;5.63;;;4.27;;
9689;SDS011;4884;42.614;23.340;2024-01-06T10:08:29;5.63;;;4.60;;
9689;SDS011;4884;42.614;23.340;2024-01-06T10:10:54;6.27;;;4.67;;
9689;SDS011;4884;42.614;23.340;2024-01-06T10:13:20;8.23;;;4.90;;
9689;SDS011;4884;42.614;23.340;2024-01-06T10:15:45;6.77;;;4.90;;
9689;SDS011;4884;42.614;23.340;2024-01-06T10:18:11;5.23;;;4.70;;
9689;SDS011;4884;42.614;23.340;2024-01-06T10:20:37;5.03;;;4.27;;
9689;SDS011;4884;42.614;23.340;2024-01-06T10:23:06;5.83;;;3.80;;
9689;SDS011;4884;42.614;23.340;2024-01-06T10:25:31;5.50;;;4.80;;
9689;SDS011;4884;42.614;23.340;2024-01-06T10:27:57;8.37;;;4.67;;
9689;SDS011;4884;42.614;23.340;2024-01-06T10:30:25;6.17;;;5.20;;
9689;SDS011;4884;42.614;23.340;2024-01-06T10:32:51;5.80;;;5.20;;
9689;SDS011;4884;42.614;23.340;2024-01-06T10:35:17;6.10;;;5.50;;
9689;SDS011;4884;42.614;23.340;2024-01-06T10:37:43;8.23;;;5.57;;
9689;SDS011;4884;42.614;23.340;2024-01-06T10:40:15;6.70;;;6.07;;
9689;SDS011;4884;42.614;23.340;2024-01-06T10:42:41;10.43;;;5.87;;
9689;SDS011;4884;42.614;23.340;2024-01-06T10:45:08;16.13;;;9.40;;
9689;SDS011;4884;42.614;23.340;2024-01-06T10:47:35;13.27;;;9.90;;
9689;SDS011;4884;42.614;23.340;2024-01-06T10:50:02;14.10;;;10.77;;
9689;SDS011;4884;42.614;23.340;2024-01-06T10:52:28;23.83;;;15.03;;
9689;SDS011;4884;42.614;23.340;2024-01-06T10:54:54;17.50;;;13.33;;
9689;SDS011;4884;42.614;23.340;2024-01-06T10:57:20;22.47;;;13.60;;
9689;SDS011;4884;42.614;23.340;2024-01-06T10:59:45;16.63;;;12.67;;
9689;SDS011;4884;42.614;23.340;2024-01-06T11:02:14;17.80;;;13.53;;
9689;SDS011;4884;42.614;23.340;2024-01-06T11:04:42;21.77;;;14.53;;
9689;SDS011;4884;42.614;23.340;2024-01-06T11:07:12;21.23;;;14.67;;
9689;SDS011;4884;42.614;23.340;2024-01-06T11:09:39;22.47;;;13.67;;
9689;SDS011;4884;42.614;23.340;2024-01-06T11:12:16;20.57;;;12.70;;
9689;SDS011;4884;42.614;23.340;2024-01-06T11:14:42;14.43;;;12.37;;
9689;SDS011;4884;42.614;23.340;2024-01-06T11:17:07;19.10;;;13.27;;
9689;SDS011;4884;42.614;23.340;2024-01-06T11:24:47;21.33;;;16.30;;
9689;SDS011;4884;42.614;23.340;2024-01-06T11:27:33;21.17;;;15.37;;
9689;SDS011;4884;42.614;23.340;2024-01-06T11:30:01;21.00;;;15.37;;
9689;SDS011;4884;42.614;23.340;2024-01-06T11:32:34;25.20;;;18.87;;
9689;SDS011;4884;42.614;23.340;2024-01-06T11:35:11;25.33;;;18.37;;
9689;SDS011;4884;42.614;23.340;2024-01-06T11:40:09;12.83;;;11.33;;
9689;SDS011;4884;42.614;23.340;2024-01-06T11:42:40;14.90;;;11.93;;
9689;SDS011;4884;42.614;23.340;2024-01-06T11:45:07;20.43;;;14.07;;
9689;SDS011;4884;42.614;23.340;2024-01-06T11:47:33;17.30;;;13.60;;
9689;SDS011;4884;42.614;23.340;2024-01-06T11:50:02;14.60;;;12.53;;
9689;SDS011;4884;42.614;23.340;2024-01-06T11:52:34;21.80;;;14.40;;
9689;SDS011;4884;42.614;23.340;2024-01-06T11:55:00;19.53;;;12.80;;
9689;SDS011;4884;42.614;23.340;2024-01-06T11:57:26;23.30;;;14.40;;
9689;SDS011;4884;42.614;23.340;2024-01-06T11:59:52;17.00;;;12.37;;
9689;SDS011;4884;42.614;23.340;2024-01-06T12:02:18;21.87;;;12.90;;
9689;SDS011;4884;42.614;23.340;2024-01-06T12:04:53;17.47;;;13.47;;
9689;SDS011;4884;42.614;23.340;2024-01-06T12:07:19;16.23;;;11.90;;
9689;SDS011;4884;42.614;23.340;2024-01-06T12:09:45;16.03;;;11.03;;
9689;SDS011;4884;42.614;23.340;2024-01-06T12:12:14;17.30;;;12.03;;
9689;SDS011;4884;42.614;23.340;2024-01-06T12:14:41;19.20;;;12.53;;
9689;SDS011;4884;42.614;23.340;2024-01-06T12:17:10;16.53;;;13.20;;
9689;SDS011;4884;42.614;23.340;2024-01-06T12:19:38;18.43;;;12.93;;
9689;SDS011;4884;42.614;23.340;2024-01-06T12:22:04;22.00;;;13.33;;
9689;SDS011;4884;42.614;23.340;2024-01-06T12:24:30;19.23;;;14.17;;
9689;SDS011;4884;42.614;23.340;2024-01-06T12:26:56;23.17;;;15.80;;
9689;SDS011;4884;42.614;23.340;2024-01-06T12:29:22;20.63;;;14.50;;
9689;SDS011;4884;42.614;23.340;2024-01-06T12:31:51;22.17;;;14.00;;
9689;SDS011;4884;42.614;23.340;2024-01-06T12:34:17;19.40;;;14.00;;
9689;SDS011;4884;42.614;23.340;2024-01-06T12:36:43;19.40;;;13.17;;
9689;SDS011;4884;42.614;23.340;2024-01-06T12:39:12;16.30;;;12.10;;
9689;SDS011;4884;42.614;23.340;2024-01-06T12:41:38;21.90;;;12.80;;
9689;SDS011;4884;42.614;23.340;2024-01-06T12:44:07;17.87;;;12.63;;
9689;SDS011;4884;42.614;23.340;2024-01-06T12:46:33;17.40;;;13.43;;
9689;SDS011;4884;42.614;23.340;2024-01-06T12:48:59;16.57;;;13.50;;
9689;SDS011;4884;42.614;23.340;2024-01-06T12:51:24;19.47;;;14.07;;
9689;SDS011;4884;42.614;23.340;2024-01-06T12:53:50;22.50;;;15.07;;
9689;SDS011;4884;42.614;23.340;2024-01-06T12:56:15;17.80;;;12.70;;
9689;SDS011;4884;42.614;23.340;2024-01-06T12:58:41;15.73;;;12.17;;
9689;SDS011;4884;42.614;23.340;2024-01-06T13:01:06;17.50;;;12.27;;
9689;SDS011;4884;42.614;23.340;2024-01-06T13:03:32;17.20;;;12.07;;
9689;SDS011;4884;42.614;23.340;2024-01-06T13:05:58;13.00;;;11.03;;
9689;SDS011;4884;42.614;23.340;2024-01-06T13:08:23;14.83;;;11.07;;
9689;SDS011;4884;42.614;23.340;2024-01-06T13:10:49;22.07;;;12.73;;
9689;SDS011;4884;42.614;23.340;2024-01-06T13:13:14;10.00;;;7.43;;
9689;SDS011;4884;42.614;23.340;2024-01-06T13:15:40;12.97;;;8.43;;
9689;SDS011;4884;42.614;23.340;2024-01-06T13:18:05;13.77;;;9.10;;
9689;SDS011;4884;42.614;23.340;2024-01-06T13:20:31;11.07;;;8.33;;
9689;SDS011;4884;42.614;23.340;2024-01-06T13:22:57;11.13;;;7.10;;
9689;SDS011;4884;42.614;23.340;2024-01-06T13:25:22;11.80;;;6.90;;
9689;SDS011;4884;42.614;23.340;2024-01-06T13:27:48;11.77;;;8.37;;
9689;SDS011;4884;42.614;23.340;2024-01-06T13:30:15;11.93;;;6.30;;
9689;SDS011;4884;42.614;23.340;2024-01-06T13:32:40;14.57;;;7.73;;
9689;SDS011;4884;42.614;23.340;2024-01-06T13:35:06;9.33;;;6.97;;
9689;SDS011;4884;42.614;23.340;2024-01-06T13:37:32;12.10;;;7.20;;
9689;SDS011;4884;42.614;23.340;2024-01-06T13:39:57;11.23;;;6.83;;
9689;SDS011;4884;42.614;23.340;2024-01-06T13:42:23;12.73;;;7.97;;
9689;SDS011;4884;42.614;23.340;2024-01-06T13:44:48;7.93;;;6.20;;
9689;SDS011;4884;42.614;23.340;2024-01-06T13:47:14;7.43;;;4.70;;
9689;SDS011;4884;42.614;23.340;2024-01-06T13:49:39;9.13;;;4.50;;
9689;SDS011;4884;42.614;23.340;2024-01-06T13:52:05;9.03;;;5.10;;
9689;SDS011;4884;42.614;23.340;2024-01-06T13:54:32;6.57;;;4.97;;
9689;SDS011;4884;42.614;23.340;2024-01-06T13:56:58;10.57;;;6.33;;
9689;SDS011;4884;42.614;23.340;2024-01-06T13:59:24;7.97;;;5.23;;
9689;SDS011;4884;42.614;23.340;2024-01-06T14:01:49;9.37;;;6.03;;
9689;SDS011;4884;42.614;23.340;2024-01-06T14:04:14;17.63;;;7.47;;
9689;SDS011;4884;42.614;23.340;2024-01-06T14:06:41;23.60;;;9.27;;
9689;SDS011;4884;42.614;23.340;2024-01-06T14:09:07;31.43;;;17.33;;
9689;SDS011;4884;42.614;23.340;2024-01-06T14:11:33;24.97;;;11.30;;
9689;SDS011;4884;42.614;23.340;2024-01-06T14:13:59;40.03;;;21.93;;
9689;SDS011;4884;42.614;23.340;2024-01-06T14:16:24;57.37;;;22.33;;
9689;SDS011;4884;42.614;23.340;2024-01-06T14:18:50;34.73;;;19.67;;
9689;SDS011;4884;42.614;23.340;2024-01-06T14:21:15;28.20;;;14.07;;
9689;SDS011;4884;42.614;23.340;2024-01-06T14:23:44;27.77;;;13.03;;
9689;SDS011;4884;42.614;23.340;2024-01-06T14:26:09;30.13;;;16.07;;
9689;SDS011;4884;42.614;23.340;2024-01-06T14:28:35;32.57;;;20.37;;
9689;SDS011;4884;42.614;23.340;2024-01-06T14:31:01;43.70;;;25.37;;
9689;SDS011;4884;42.614;23.340;2024-01-06T14:33:26;34.90;;;22.53;;
9689;SDS011;4884;42.614;23.340;2024-01-06T14:35:52;38.67;;;22.23;;
9689;SDS011;4884;42.614;23.340;2024-01-06T14:38:18;40.90;;;26.00;;
9689;SDS011;4884;42.614;23.340;2024-01-06T14:40:44;54.63;;;30.50;;
9689;SDS011;4884;42.614;23.340;2024-01-06T14:43:09;46.43;;;28.10;;
9689;SDS011;4884;42.614;23.340;2024-01-06T14:45:35;24.37;;;16.73;;
9689;SDS011;4884;42.614;23.340;2024-01-06T14:48:01;33.33;;;17.80;;
9689;SDS011;4884;42.614;23.340;2024-01-06T14:50:26;14.53;;;9.77;;
9689;SDS011;4884;42.614;23.340;2024-01-06T14:52:51;8.37;;;5.73;;